sensor_id;sensor_type;location;lat;lon;timestamp;temperature;humidity
37530;DHT22;23374;52.758;6.872;2023-08-01T00:01:00;16.90;99.90
37530;DHT22;23374;52.758;6.872;2023-08-01T00:03:21;16.90;99.90
37530;DHT22;23374;52.758;6.872;2023-08-01T00:05:42;16.90;99.90
37530;DHT22;23374;52.758;6.872;2023-08-01T00:08:05;16.90;99.90
37530;DHT22;23374;52.758;6.872;2023-08-01T00:10:26;16.90;99.90
37530;DHT22;23374;52.758;6.872;2023-08-01T00:12:46;16.90;99.90
37530;DHT22;23374;52.758;6.872;2023-08-01T00:15:08;16.90;99.90
37530;DHT22;23374;52.758;6.872;2023-08-01T00:17:29;16.90;99.90
37530;DHT22;23374;52.758;6.872;2023-08-01T00:19:49;16.90;99.90
37530;DHT22;23374;52.758;6.872;2023-08-01T00:22:10;16.90;99.90
37530;DHT22;23374;52.758;6.872;2023-08-01T00:24:30;16.90;99.90
37530;DHT22;23374;52.758;6.872;2023-08-01T00:26:51;16.90;99.90
37530;DHT22;23374;52.758;6.872;2023-08-01T00:29:15;16.90;99.90
37530;DHT22;23374;52.758;6.872;2023-08-01T00:31:36;16.90;99.90
37530;DHT22;23374;52.758;6.872;2023-08-01T00:33:56;16.90;99.90
37530;DHT22;23374;52.758;6.872;2023-08-01T00:36:17;16.90;99.90
37530;DHT22;23374;52.758;6.872;2023-08-01T00:38:38;16.90;99.90
37530;DHT22;23374;52.758;6.872;2023-08-01T00:41:00;16.90;99.90
37530;DHT22;23374;52.758;6.872;2023-08-01T00:43:20;16.80;99.90
37530;DHT22;23374;52.758;6.872;2023-08-01T00:45:40;16.80;99.90
37530;DHT22;23374;52.758;6.872;2023-08-01T00:48:02;16.80;99.90
37530;DHT22;23374;52.758;6.872;2023-08-01T00:50:22;16.80;99.90
37530;DHT22;23374;52.758;6.872;2023-08-01T00:52:43;16.80;99.90
37530;DHT22;23374;52.758;6.872;2023-08-01T00:55:05;16.90;99.90
37530;DHT22;23374;52.758;6.872;2023-08-01T00:57:26;16.90;99.90
37530;DHT22;23374;52.758;6.872;2023-08-01T00:59:47;16.80;99.90
37530;DHT22;23374;52.758;6.872;2023-08-01T01:02:07;16.80;99.90
37530;DHT22;23374;52.758;6.872;2023-08-01T01:04:28;16.80;99.90
37530;DHT22;23374;52.758;6.872;2023-08-01T01:07:03;16.80;99.90
37530;DHT22;23374;52.758;6.872;2023-08-01T01:09:23;16.80;99.90
37530;DHT22;23374;52.758;6.872;2023-08-01T01:11:45;16.80;99.90
37530;DHT22;23374;52.758;6.872;2023-08-01T01:14:05;16.80;99.90
37530;DHT22;23374;52.758;6.872;2023-08-01T01:16:26;16.80;99.90
37530;DHT22;23374;52.758;6.872;2023-08-01T01:18:46;16.80;99.90
37530;DHT22;23374;52.758;6.872;2023-08-01T01:21:06;16.80;99.90
37530;DHT22;23374;52.758;6.872;2023-08-01T01:23:27;16.80;99.90
37530;DHT22;23374;52.758;6.872;2023-08-01T01:25:51;16.80;99.90
37530;DHT22;23374;52.758;6.872;2023-08-01T01:28:13;16.80;99.90
37530;DHT22;23374;52.758;6.872;2023-08-01T01:30:35;16.80;99.90
37530;DHT22;23374;52.758;6.872;2023-08-01T01:32:57;16.80;99.90
37530;DHT22;23374;52.758;6.872;2023-08-01T01:35:18;16.80;99.90
37530;DHT22;23374;52.758;6.872;2023-08-01T01:37:39;16.80;99.90
37530;DHT22;23374;52.758;6.872;2023-08-01T01:40:02;16.80;99.90
37530;DHT22;23374;52.758;6.872;2023-08-01T01:42:23;16.80;99.90
37530;DHT22;23374;52.758;6.872;2023-08-01T01:44:43;16.80;99.90
37530;DHT22;23374;52.758;6.872;2023-08-01T01:47:05;16.80;99.90
37530;DHT22;23374;52.758;6.872;2023-08-01T01:49:26;16.70;99.90
37530;DHT22;23374;52.758;6.872;2023-08-01T01:51:46;16.70;99.90
37530;DHT22;23374;52.758;6.872;2023-08-01T01:54:06;16.70;99.90
37530;DHT22;23374;52.758;6.872;2023-08-01T01:56:27;16.70;99.90
37530;DHT22;23374;52.758;6.872;2023-08-01T01:58:47;16.70;99.90
37530;DHT22;23374;52.758;6.872;2023-08-01T02:01:08;16.70;99.90
37530;DHT22;23374;52.758;6.872;2023-08-01T02:03:28;16.70;99.90
37530;DHT22;23374;52.758;6.872;2023-08-01T02:05:49;16.70;99.90
37530;DHT22;23374;52.758;6.872;2023-08-01T02:08:09;16.70;99.90
37530;DHT22;23374;52.758;6.872;2023-08-01T02:10:29;16.70;99.90
37530;DHT22;23374;52.758;6.872;2023-08-01T02:12:50;16.70;99.90
37530;DHT22;23374;52.758;6.872;2023-08-01T02:15:10;16.70;99.90
37530;DHT22;23374;52.758;6.872;2023-08-01T02:17:30;16.70;99.90
37530;DHT22;23374;52.758;6.872;2023-08-01T02:19:51;16.60;99.90
37530;DHT22;23374;52.758;6.872;2023-08-01T02:22:11;16.60;99.90
37530;DHT22;23374;52.758;6.872;2023-08-01T02:24:32;16.60;99.90
37530;DHT22;23374;52.758;6.872;2023-08-01T02:26:52;16.60;99.90
37530;DHT22;23374;52.758;6.872;2023-08-01T02:29:13;16.60;99.90
37530;DHT22;23374;52.758;6.872;2023-08-01T02:31:34;16.60;99.90
37530;DHT22;23374;52.758;6.872;2023-08-01T02:33:55;16.60;99.90
37530;DHT22;23374;52.758;6.872;2023-08-01T02:36:16;16.60;99.90
37530;DHT22;23374;52.758;6.872;2023-08-01T02:38:36;16.60;99.90
37530;DHT22;23374;52.758;6.872;2023-08-01T02:40:56;16.50;99.90
37530;DHT22;23374;52.758;6.872;2023-08-01T02:43:17;16.60;99.90
37530;DHT22;23374;52.758;6.872;2023-08-01T02:45:38;16.50;99.90
37530;DHT22;23374;52.758;6.872;2023-08-01T02:47:58;16.50;99.90
37530;DHT22;23374;52.758;6.872;2023-08-01T02:50:19;16.50;99.90
37530;DHT22;23374;52.758;6.872;2023-08-01T02:52:39;16.50;99.90
37530;DHT22;23374;52.758;6.872;2023-08-01T02:55:00;16.50;99.90
37530;DHT22;23374;52.758;6.872;2023-08-01T02:57:20;16.40;99.90
37530;DHT22;23374;52.758;6.872;2023-08-01T02:59:40;16.50;99.90
37530;DHT22;23374;52.758;6.872;2023-08-01T03:02:01;16.40;99.90
37530;DHT22;23374;52.758;6.872;2023-08-01T03:04:22;16.40;99.90
37530;DHT22;23374;52.758;6.872;2023-08-01T03:06:42;16.40;99.90
37530;DHT22;23374;52.758;6.872;2023-08-01T03:09:03;16.40;99.90
37530;DHT22;23374;52.758;6.872;2023-08-01T03:11:28;16.40;99.90
37530;DHT22;23374;52.758;6.872;2023-08-01T03:13:48;16.40;99.90
37530;DHT22;23374;52.758;6.872;2023-08-01T03:16:08;16.40;99.90
37530;DHT22;23374;52.758;6.872;2023-08-01T03:18:30;16.30;99.90
37530;DHT22;23374;52.758;6.872;2023-08-01T03:20:51;16.30;99.90
37530;DHT22;23374;52.758;6.872;2023-08-01T03:23:11;16.30;99.90
37530;DHT22;23374;52.758;6.872;2023-08-01T03:25:31;16.30;99.90
37530;DHT22;23374;52.758;6.872;2023-08-01T03:27:52;16.30;99.90
37530;DHT22;23374;52.758;6.872;2023-08-01T03:30:12;16.20;99.90
37530;DHT22;23374;52.758;6.872;2023-08-01T03:32:33;16.20;99.90
37530;DHT22;23374;52.758;6.872;2023-08-01T03:34:53;16.20;99.90
37530;DHT22;23374;52.758;6.872;2023-08-01T03:37:13;16.20;99.90
37530;DHT22;23374;52.758;6.872;2023-08-01T03:39:33;16.20;99.90
37530;DHT22;23374;52.758;6.872;2023-08-01T03:41:54;16.10;99.90
37530;DHT22;23374;52.758;6.872;2023-08-01T03:44:14;16.10;99.90
37530;DHT22;23374;52.758;6.872;2023-08-01T03:46:35;16.10;99.90
37530;DHT22;23374;52.758;6.872;2023-08-01T03:48:56;16.10;99.90
37530;DHT22;23374;52.758;6.872;2023-08-01T03:51:16;16.00;99.90
37530;DHT22;23374;52.758;6.872;2023-08-01T03:53:38;16.00;99.90
37530;DHT22;23374;52.758;6.872;2023-08-01T03:55:58;16.00;99.90
37530;DHT22;23374;52.758;6.872;2023-08-01T03:58:19;15.90;99.90
37530;DHT22;23374;52.758;6.872;2023-08-01T04:00:39;15.90;99.90
37530;DHT22;23374;52.758;6.872;2023-08-01T04:03:02;15.90;99.90
37530;DHT22;23374;52.758;6.872;2023-08-01T04:05:22;15.90;99.90
37530;DHT22;23374;52.758;6.872;2023-08-01T04:07:44;15.90;99.90
37530;DHT22;23374;52.758;6.872;2023-08-01T04:10:06;15.90;99.90
37530;DHT22;23374;52.758;6.872;2023-08-01T04:12:26;15.90;99.90
37530;DHT22;23374;52.758;6.872;2023-08-01T04:14:46;15.90;99.90
37530;DHT22;23374;52.758;6.872;2023-08-01T04:17:07;15.90;99.90
37530;DHT22;23374;52.758;6.872;2023-08-01T04:19:27;15.90;99.90
37530;DHT22;23374;52.758;6.872;2023-08-01T04:21:48;15.90;99.90
37530;DHT22;23374;52.758;6.872;2023-08-01T04:24:08;15.80;99.90
37530;DHT22;23374;52.758;6.872;2023-08-01T04:26:28;15.80;99.90
37530;DHT22;23374;52.758;6.872;2023-08-01T04:28:48;15.80;99.90
37530;DHT22;23374;52.758;6.872;2023-08-01T04:31:09;15.80;99.90
37530;DHT22;23374;52.758;6.872;2023-08-01T04:33:29;15.70;99.90
37530;DHT22;23374;52.758;6.872;2023-08-01T04:35:50;15.70;99.90
37530;DHT22;23374;52.758;6.872;2023-08-01T04:38:11;15.70;99.90
37530;DHT22;23374;52.758;6.872;2023-08-01T04:40:31;15.60;99.90
37530;DHT22;23374;52.758;6.872;2023-08-01T04:42:51;15.50;99.90
37530;DHT22;23374;52.758;6.872;2023-08-01T04:45:11;15.50;99.90
37530;DHT22;23374;52.758;6.872;2023-08-01T04:47:32;15.50;99.90
37530;DHT22;23374;52.758;6.872;2023-08-01T04:49:52;15.50;99.90
37530;DHT22;23374;52.758;6.872;2023-08-01T04:52:13;15.40;99.90
37530;DHT22;23374;52.758;6.872;2023-08-01T04:54:33;15.40;99.90
37530;DHT22;23374;52.758;6.872;2023-08-01T04:56:54;15.40;99.90
37530;DHT22;23374;52.758;6.872;2023-08-01T04:59:15;15.40;99.90
37530;DHT22;23374;52.758;6.872;2023-08-01T05:01:35;15.40;99.90
37530;DHT22;23374;52.758;6.872;2023-08-01T05:03:56;15.40;99.90
37530;DHT22;23374;52.758;6.872;2023-08-01T05:06:17;15.40;99.90
37530;DHT22;23374;52.758;6.872;2023-08-01T05:08:37;15.40;99.90
37530;DHT22;23374;52.758;6.872;2023-08-01T05:10:58;15.40;99.90
37530;DHT22;23374;52.758;6.872;2023-08-01T05:13:19;15.40;99.90
37530;DHT22;23374;52.758;6.872;2023-08-01T05:15:39;15.40;99.90
37530;DHT22;23374;52.758;6.872;2023-08-01T05:18:00;15.40;99.90
37530;DHT22;23374;52.758;6.872;2023-08-01T05:20:20;15.40;99.90
37530;DHT22;23374;52.758;6.872;2023-08-01T05:22:40;15.50;99.90
37530;DHT22;23374;52.758;6.872;2023-08-01T05:25:00;15.50;99.90
37530;DHT22;23374;52.758;6.872;2023-08-01T05:27:22;15.60;99.90
37530;DHT22;23374;52.758;6.872;2023-08-01T05:29:42;15.60;99.90
37530;DHT22;23374;52.758;6.872;2023-08-01T05:32:04;15.60;99.90
37530;DHT22;23374;52.758;6.872;2023-08-01T05:34:24;15.60;99.90
37530;DHT22;23374;52.758;6.872;2023-08-01T05:36:44;15.70;99.90
37530;DHT22;23374;52.758;6.872;2023-08-01T05:39:05;15.70;99.90
37530;DHT22;23374;52.758;6.872;2023-08-01T05:41:26;15.70;99.90
37530;DHT22;23374;52.758;6.872;2023-08-01T05:43:48;15.70;99.90
37530;DHT22;23374;52.758;6.872;2023-08-01T05:46:10;15.70;99.90
37530;DHT22;23374;52.758;6.872;2023-08-01T05:48:30;15.70;99.90
37530;DHT22;23374;52.758;6.872;2023-08-01T05:50:51;15.70;99.90
37530;DHT22;23374;52.758;6.872;2023-08-01T05:53:13;15.70;99.90
37530;DHT22;23374;52.758;6.872;2023-08-01T05:55:33;15.70;99.90
37530;DHT22;23374;52.758;6.872;2023-08-01T05:57:53;15.70;99.90
37530;DHT22;23374;52.758;6.872;2023-08-01T06:00:15;15.70;99.90
37530;DHT22;23374;52.758;6.872;2023-08-01T06:02:35;15.60;99.90
37530;DHT22;23374;52.758;6.872;2023-08-01T06:04:56;15.70;99.90
37530;DHT22;23374;52.758;6.872;2023-08-01T06:07:16;15.70;99.90
37530;DHT22;23374;52.758;6.872;2023-08-01T06:09:42;15.70;99.90
37530;DHT22;23374;52.758;6.872;2023-08-01T06:12:04;15.70;99.90
37530;DHT22;23374;52.758;6.872;2023-08-01T06:14:25;15.70;99.90
37530;DHT22;23374;52.758;6.872;2023-08-01T06:16:46;15.70;99.90
37530;DHT22;23374;52.758;6.872;2023-08-01T06:19:06;15.70;99.90
37530;DHT22;23374;52.758;6.872;2023-08-01T06:21:27;15.70;99.90
37530;DHT22;23374;52.758;6.872;2023-08-01T06:23:47;15.60;99.90
37530;DHT22;23374;52.758;6.872;2023-08-01T06:26:07;15.60;99.90
37530;DHT22;23374;52.758;6.872;2023-08-01T06:28:28;15.60;99.90
37530;DHT22;23374;52.758;6.872;2023-08-01T06:30:48;15.60;99.90
37530;DHT22;23374;52.758;6.872;2023-08-01T06:33:08;15.60;99.90
37530;DHT22;23374;52.758;6.872;2023-08-01T06:35:29;15.50;99.90
37530;DHT22;23374;52.758;6.872;2023-08-01T06:37:49;15.50;99.90
37530;DHT22;23374;52.758;6.872;2023-08-01T06:40:11;15.50;99.90
37530;DHT22;23374;52.758;6.872;2023-08-01T06:42:32;15.50;99.90
37530;DHT22;23374;52.758;6.872;2023-08-01T06:44:52;15.60;99.90
37530;DHT22;23374;52.758;6.872;2023-08-01T06:47:12;15.60;99.90
37530;DHT22;23374;52.758;6.872;2023-08-01T06:49:32;15.70;99.90
37530;DHT22;23374;52.758;6.872;2023-08-01T06:51:52;15.70;99.90
37530;DHT22;23374;52.758;6.872;2023-08-01T06:54:12;15.80;99.90
37530;DHT22;23374;52.758;6.872;2023-08-01T06:56:33;15.90;99.90
37530;DHT22;23374;52.758;6.872;2023-08-01T06:58:53;16.00;99.90
37530;DHT22;23374;52.758;6.872;2023-08-01T07:01:13;16.10;99.90
37530;DHT22;23374;52.758;6.872;2023-08-01T07:03:34;16.10;99.90
37530;DHT22;23374;52.758;6.872;2023-08-01T07:05:54;16.10;99.90
37530;DHT22;23374;52.758;6.872;2023-08-01T07:08:14;16.10;99.90
37530;DHT22;23374;52.758;6.872;2023-08-01T07:10:35;16.10;99.90
37530;DHT22;23374;52.758;6.872;2023-08-01T07:12:56;16.20;99.90
37530;DHT22;23374;52.758;6.872;2023-08-01T07:15:16;16.30;99.90
37530;DHT22;23374;52.758;6.872;2023-08-01T07:17:37;16.30;99.90
37530;DHT22;23374;52.758;6.872;2023-08-01T07:19:57;16.30;99.90
37530;DHT22;23374;52.758;6.872;2023-08-01T07:22:17;16.40;99.90
37530;DHT22;23374;52.758;6.872;2023-08-01T07:24:37;16.40;99.90
37530;DHT22;23374;52.758;6.872;2023-08-01T07:26:57;16.40;99.90
37530;DHT22;23374;52.758;6.872;2023-08-01T07:29:18;16.40;99.90
37530;DHT22;23374;52.758;6.872;2023-08-01T07:31:38;16.40;99.90
37530;DHT22;23374;52.758;6.872;2023-08-01T07:33:59;16.40;99.90
37530;DHT22;23374;52.758;6.872;2023-08-01T07:36:19;16.40;99.90
37530;DHT22;23374;52.758;6.872;2023-08-01T07:38:42;16.40;99.90
37530;DHT22;23374;52.758;6.872;2023-08-01T07:41:06;16.50;99.90
37530;DHT22;23374;52.758;6.872;2023-08-01T07:43:27;16.50;99.90
37530;DHT22;23374;52.758;6.872;2023-08-01T07:45:47;16.60;99.90
37530;DHT22;23374;52.758;6.872;2023-08-01T07:48:10;16.60;99.90
37530;DHT22;23374;52.758;6.872;2023-08-01T07:50:31;16.70;99.90
37530;DHT22;23374;52.758;6.872;2023-08-01T07:52:51;16.70;99.90
37530;DHT22;23374;52.758;6.872;2023-08-01T07:55:12;16.70;99.90
37530;DHT22;23374;52.758;6.872;2023-08-01T07:57:32;16.70;99.90
37530;DHT22;23374;52.758;6.872;2023-08-01T07:59:53;16.70;99.90
37530;DHT22;23374;52.758;6.872;2023-08-01T08:02:13;16.60;99.90
37530;DHT22;23374;52.758;6.872;2023-08-01T08:04:34;16.60;99.90
37530;DHT22;23374;52.758;6.872;2023-08-01T08:06:55;16.70;99.90
37530;DHT22;23374;52.758;6.872;2023-08-01T08:09:19;16.60;99.90
37530;DHT22;23374;52.758;6.872;2023-08-01T08:11:40;16.70;99.90
37530;DHT22;23374;52.758;6.872;2023-08-01T08:14:01;16.70;99.90
37530;DHT22;23374;52.758;6.872;2023-08-01T08:16:21;16.60;99.90
37530;DHT22;23374;52.758;6.872;2023-08-01T08:18:42;16.60;99.90
37530;DHT22;23374;52.758;6.872;2023-08-01T08:21:02;16.60;99.90
37530;DHT22;23374;52.758;6.872;2023-08-01T08:23:23;16.50;99.90
37530;DHT22;23374;52.758;6.872;2023-08-01T08:25:43;16.50;99.90
37530;DHT22;23374;52.758;6.872;2023-08-01T08:28:13;16.50;99.90
37530;DHT22;23374;52.758;6.872;2023-08-01T08:30:34;16.50;99.90
37530;DHT22;23374;52.758;6.872;2023-08-01T08:32:58;16.60;99.90
37530;DHT22;23374;52.758;6.872;2023-08-01T08:35:20;16.60;99.90
37530;DHT22;23374;52.758;6.872;2023-08-01T08:37:40;16.60;99.90
37530;DHT22;23374;52.758;6.872;2023-08-01T08:40:01;16.50;99.90
37530;DHT22;23374;52.758;6.872;2023-08-01T08:42:22;16.60;99.90
37530;DHT22;23374;52.758;6.872;2023-08-01T08:44:43;16.60;99.90
37530;DHT22;23374;52.758;6.872;2023-08-01T08:47:06;16.60;99.90
37530;DHT22;23374;52.758;6.872;2023-08-01T08:49:27;16.50;99.90
37530;DHT22;23374;52.758;6.872;2023-08-01T08:51:49;16.50;99.90
37530;DHT22;23374;52.758;6.872;2023-08-01T08:54:09;16.40;99.90
37530;DHT22;23374;52.758;6.872;2023-08-01T08:56:30;16.40;99.90
37530;DHT22;23374;52.758;6.872;2023-08-01T08:58:51;16.40;99.90
37530;DHT22;23374;52.758;6.872;2023-08-01T09:01:13;16.40;99.90
37530;DHT22;23374;52.758;6.872;2023-08-01T09:03:33;16.50;99.90
37530;DHT22;23374;52.758;6.872;2023-08-01T09:06:09;16.50;99.90
37530;DHT22;23374;52.758;6.872;2023-08-01T09:08:35;16.50;99.90
37530;DHT22;23374;52.758;6.872;2023-08-01T09:10:57;16.60;99.90
37530;DHT22;23374;52.758;6.872;2023-08-01T09:13:18;16.60;99.90
37530;DHT22;23374;52.758;6.872;2023-08-01T09:15:40;16.70;99.90
37530;DHT22;23374;52.758;6.872;2023-08-01T09:18:06;16.70;99.90
37530;DHT22;23374;52.758;6.872;2023-08-01T09:20:28;16.70;99.90
37530;DHT22;23374;52.758;6.872;2023-08-01T09:22:48;16.70;99.90
37530;DHT22;23374;52.758;6.872;2023-08-01T09:25:08;16.70;99.90
37530;DHT22;23374;52.758;6.872;2023-08-01T09:27:33;16.70;99.90
37530;DHT22;23374;52.758;6.872;2023-08-01T09:29:53;16.80;99.90
37530;DHT22;23374;52.758;6.872;2023-08-01T09:32:24;16.80;99.90
37530;DHT22;23374;52.758;6.872;2023-08-01T09:34:45;16.80;99.90
37530;DHT22;23374;52.758;6.872;2023-08-01T09:37:05;16.90;99.90
37530;DHT22;23374;52.758;6.872;2023-08-01T09:39:26;16.80;99.90
37530;DHT22;23374;52.758;6.872;2023-08-01T09:42:04;16.70;99.90
37530;DHT22;23374;52.758;6.872;2023-08-01T09:44:25;16.70;99.90
37530;DHT22;23374;52.758;6.872;2023-08-01T09:47:04;16.60;99.90
37530;DHT22;23374;52.758;6.872;2023-08-01T09:49:28;16.50;99.90
37530;DHT22;23374;52.758;6.872;2023-08-01T09:51:50;16.50;99.90
37530;DHT22;23374;52.758;6.872;2023-08-01T09:54:10;16.40;99.90
37530;DHT22;23374;52.758;6.872;2023-08-01T09:56:31;16.40;99.90
37530;DHT22;23374;52.758;6.872;2023-08-01T09:58:53;16.40;99.90
37530;DHT22;23374;52.758;6.872;2023-08-01T10:01:17;16.30;99.90
37530;DHT22;23374;52.758;6.872;2023-08-01T10:03:38;16.30;99.90
37530;DHT22;23374;52.758;6.872;2023-08-01T10:06:00;16.20;99.90
37530;DHT22;23374;52.758;6.872;2023-08-01T10:08:22;16.10;99.90
37530;DHT22;23374;52.758;6.872;2023-08-01T10:10:43;16.10;99.90
37530;DHT22;23374;52.758;6.872;2023-08-01T10:13:05;16.10;99.90
37530;DHT22;23374;52.758;6.872;2023-08-01T10:15:26;16.10;99.90
37530;DHT22;23374;52.758;6.872;2023-08-01T10:17:46;16.20;99.90
37530;DHT22;23374;52.758;6.872;2023-08-01T10:20:08;16.30;99.90
37530;DHT22;23374;52.758;6.872;2023-08-01T10:22:29;16.30;99.90
37530;DHT22;23374;52.758;6.872;2023-08-01T10:24:50;16.40;99.90
37530;DHT22;23374;52.758;6.872;2023-08-01T10:27:18;16.50;99.90
37530;DHT22;23374;52.758;6.872;2023-08-01T10:29:39;16.60;99.90
37530;DHT22;23374;52.758;6.872;2023-08-01T10:32:00;16.70;99.90
37530;DHT22;23374;52.758;6.872;2023-08-01T10:34:20;16.80;99.90
37530;DHT22;23374;52.758;6.872;2023-08-01T10:36:54;16.80;99.90
37530;DHT22;23374;52.758;6.872;2023-08-01T10:39:22;16.90;99.90
37530;DHT22;23374;52.758;6.872;2023-08-01T10:41:43;16.90;99.90
37530;DHT22;23374;52.758;6.872;2023-08-01T10:44:09;17.00;99.90
37530;DHT22;23374;52.758;6.872;2023-08-01T10:46:48;17.30;99.90
37530;DHT22;23374;52.758;6.872;2023-08-01T10:49:09;17.40;99.90
37530;DHT22;23374;52.758;6.872;2023-08-01T10:51:36;17.50;99.90
37530;DHT22;23374;52.758;6.872;2023-08-01T10:53:56;17.50;99.90
37530;DHT22;23374;52.758;6.872;2023-08-01T10:56:18;17.40;52.40
37530;DHT22;23374;52.758;6.872;2023-08-01T10:58:40;17.50;99.90
37530;DHT22;23374;52.758;6.872;2023-08-01T11:01:00;17.60;99.90
37530;DHT22;23374;52.758;6.872;2023-08-01T11:03:20;17.70;99.90
37530;DHT22;23374;52.758;6.872;2023-08-01T11:05:41;17.80;34.50
37530;DHT22;23374;52.758;6.872;2023-08-01T11:08:03;17.80;1.00
37530;DHT22;23374;52.758;6.872;2023-08-01T11:10:26;17.80;1.00
37530;DHT22;23374;52.758;6.872;2023-08-01T11:12:48;17.90;1.00
37530;DHT22;23374;52.758;6.872;2023-08-01T11:15:11;18.00;1.00
37530;DHT22;23374;52.758;6.872;2023-08-01T11:17:32;18.00;1.00
37530;DHT22;23374;52.758;6.872;2023-08-01T11:20:02;18.00;1.00
37530;DHT22;23374;52.758;6.872;2023-08-01T11:22:23;17.90;1.00
37530;DHT22;23374;52.758;6.872;2023-08-01T11:24:50;17.90;1.00
37530;DHT22;23374;52.758;6.872;2023-08-01T11:27:10;17.80;99.90
37530;DHT22;23374;52.758;6.872;2023-08-01T11:29:30;17.70;99.90
37530;DHT22;23374;52.758;6.872;2023-08-01T11:31:59;17.60;99.90
37530;DHT22;23374;52.758;6.872;2023-08-01T11:34:20;17.60;99.90
37530;DHT22;23374;52.758;6.872;2023-08-01T11:36:40;17.50;99.90
37530;DHT22;23374;52.758;6.872;2023-08-01T11:39:01;17.30;99.90
37530;DHT22;23374;52.758;6.872;2023-08-01T11:41:23;17.10;99.90
37530;DHT22;23374;52.758;6.872;2023-08-01T11:43:44;17.10;99.90
37530;DHT22;23374;52.758;6.872;2023-08-01T11:46:04;17.00;99.90
37530;DHT22;23374;52.758;6.872;2023-08-01T11:48:25;17.00;99.90
37530;DHT22;23374;52.758;6.872;2023-08-01T11:50:45;17.20;99.90
37530;DHT22;23374;52.758;6.872;2023-08-01T11:53:06;17.30;99.90
37530;DHT22;23374;52.758;6.872;2023-08-01T11:55:27;17.40;99.90
37530;DHT22;23374;52.758;6.872;2023-08-01T11:57:58;17.60;99.90
37530;DHT22;23374;52.758;6.872;2023-08-01T12:00:27;17.80;99.90
37530;DHT22;23374;52.758;6.872;2023-08-01T12:02:48;17.90;99.90
37530;DHT22;23374;52.758;6.872;2023-08-01T12:05:09;17.80;99.90
37530;DHT22;23374;52.758;6.872;2023-08-01T12:07:29;17.70;99.90
37530;DHT22;23374;52.758;6.872;2023-08-01T12:10:00;17.60;99.90
37530;DHT22;23374;52.758;6.872;2023-08-01T12:12:21;17.50;99.90
37530;DHT22;23374;52.758;6.872;2023-08-01T12:14:41;17.60;99.90
37530;DHT22;23374;52.758;6.872;2023-08-01T12:17:02;17.60;99.90
37530;DHT22;23374;52.758;6.872;2023-08-01T12:19:22;17.70;99.90
37530;DHT22;23374;52.758;6.872;2023-08-01T12:21:44;18.00;99.90
37530;DHT22;23374;52.758;6.872;2023-08-01T12:24:06;18.20;99.90
37530;DHT22;23374;52.758;6.872;2023-08-01T12:26:26;18.40;99.90
37530;DHT22;23374;52.758;6.872;2023-08-01T12:28:47;18.40;99.90
37530;DHT22;23374;52.758;6.872;2023-08-01T12:31:07;18.40;99.90
37530;DHT22;23374;52.758;6.872;2023-08-01T12:33:27;18.40;99.90
37530;DHT22;23374;52.758;6.872;2023-08-01T12:35:48;18.30;99.90
37530;DHT22;23374;52.758;6.872;2023-08-01T12:38:09;18.30;99.90
37530;DHT22;23374;52.758;6.872;2023-08-01T12:40:30;18.30;99.90
37530;DHT22;23374;52.758;6.872;2023-08-01T12:42:50;18.30;99.90
37530;DHT22;23374;52.758;6.872;2023-08-01T12:45:11;18.30;99.90
37530;DHT22;23374;52.758;6.872;2023-08-01T12:47:31;18.30;99.90
37530;DHT22;23374;52.758;6.872;2023-08-01T12:49:52;18.30;99.90
37530;DHT22;23374;52.758;6.872;2023-08-01T12:52:22;18.30;99.90
37530;DHT22;23374;52.758;6.872;2023-08-01T12:54:46;18.40;99.90
37530;DHT22;23374;52.758;6.872;2023-08-01T12:57:06;18.50;99.90
37530;DHT22;23374;52.758;6.872;2023-08-01T12:59:27;18.60;99.90
37530;DHT22;23374;52.758;6.872;2023-08-01T13:01:47;18.70;99.90
37530;DHT22;23374;52.758;6.872;2023-08-01T13:04:08;18.70;92.30
37530;DHT22;23374;52.758;6.872;2023-08-01T13:06:28;18.80;97.50
37530;DHT22;23374;52.758;6.872;2023-08-01T13:08:48;18.90;90.70
37530;DHT22;23374;52.758;6.872;2023-08-01T13:11:13;18.90;80.60
37530;DHT22;23374;52.758;6.872;2023-08-01T13:13:34;18.80;89.60
37530;DHT22;23374;52.758;6.872;2023-08-01T13:15:56;18.80;27.50
37530;DHT22;23374;52.758;6.872;2023-08-01T13:18:18;18.70;75.70
37530;DHT22;23374;52.758;6.872;2023-08-01T13:20:38;18.70;75.90
37530;DHT22;23374;52.758;6.872;2023-08-01T13:23:00;18.70;92.40
37530;DHT22;23374;52.758;6.872;2023-08-01T13:25:20;18.70;99.90
37530;DHT22;23374;52.758;6.872;2023-08-01T13:27:40;18.60;99.90
37530;DHT22;23374;52.758;6.872;2023-08-01T13:30:01;18.50;99.90
37530;DHT22;23374;52.758;6.872;2023-08-01T13:32:21;18.60;99.90
37530;DHT22;23374;52.758;6.872;2023-08-01T13:34:42;18.70;99.90
37530;DHT22;23374;52.758;6.872;2023-08-01T13:37:03;18.80;99.90
37530;DHT22;23374;52.758;6.872;2023-08-01T13:39:24;19.00;99.90
37530;DHT22;23374;52.758;6.872;2023-08-01T13:41:44;19.10;79.70
37530;DHT22;23374;52.758;6.872;2023-08-01T13:44:05;19.40;53.90
37530;DHT22;23374;52.758;6.872;2023-08-01T13:46:25;19.60;70.40
37530;DHT22;23374;52.758;6.872;2023-08-01T13:48:46;19.70;1.00
37530;DHT22;23374;52.758;6.872;2023-08-01T13:51:07;19.70;1.00
37530;DHT22;23374;52.758;6.872;2023-08-01T13:53:27;19.60;1.00
37530;DHT22;23374;52.758;6.872;2023-08-01T13:55:47;19.60;1.00
37530;DHT22;23374;52.758;6.872;2023-08-01T13:58:07;19.50;1.00
37530;DHT22;23374;52.758;6.872;2023-08-01T14:00:28;19.50;1.00
37530;DHT22;23374;52.758;6.872;2023-08-01T14:02:50;19.60;1.00
37530;DHT22;23374;52.758;6.872;2023-08-01T14:05:12;19.60;1.00
37530;DHT22;23374;52.758;6.872;2023-08-01T14:07:35;19.60;1.00
37530;DHT22;23374;52.758;6.872;2023-08-01T14:09:57;19.60;1.00
37530;DHT22;23374;52.758;6.872;2023-08-01T14:12:18;19.70;1.00
37530;DHT22;23374;52.758;6.872;2023-08-01T14:14:39;19.60;1.00
37530;DHT22;23374;52.758;6.872;2023-08-01T14:16:59;19.50;1.00
37530;DHT22;23374;52.758;6.872;2023-08-01T14:19:20;19.30;1.00
37530;DHT22;23374;52.758;6.872;2023-08-01T14:21:41;19.10;1.00
37530;DHT22;23374;52.758;6.872;2023-08-01T14:24:01;19.00;16.00
37530;DHT22;23374;52.758;6.872;2023-08-01T14:26:21;18.90;27.40
37530;DHT22;23374;52.758;6.872;2023-08-01T14:28:41;18.70;41.70
37530;DHT22;23374;52.758;6.872;2023-08-01T14:31:04;18.70;59.00
37530;DHT22;23374;52.758;6.872;2023-08-01T14:33:24;18.70;59.20
37530;DHT22;23374;52.758;6.872;2023-08-01T14:35:44;18.70;53.60
37530;DHT22;23374;52.758;6.872;2023-08-01T14:38:04;18.80;27.30
37530;DHT22;23374;52.758;6.872;2023-08-01T14:40:25;19.00;27.60
37530;DHT22;23374;52.758;6.872;2023-08-01T14:42:46;19.10;6.90
37530;DHT22;23374;52.758;6.872;2023-08-01T14:45:08;19.10;6.90
37530;DHT22;23374;52.758;6.872;2023-08-01T14:47:28;19.10;1.00
37530;DHT22;23374;52.758;6.872;2023-08-01T14:49:50;19.20;1.00
37530;DHT22;23374;52.758;6.872;2023-08-01T14:52:10;19.20;1.00
37530;DHT22;23374;52.758;6.872;2023-08-01T14:54:31;19.20;1.00